Time;durP1;ratioP1;P1;durP2;ratioP2;P2;SDS_P1;SDS_P2;PMS_P1;PMS_P2;Temp;Humidity;BMP_temperature;BMP_pressure;BME280_temperature;BME280_humidity;BME280_pressure;Samples;Min_cycle;Max_cycle;Signal;HPM_P1;HPM_P2
2023/04/25 00:08:04;;;;;;;0.70;0.50;;;;;;;;;;20864497;28;20233;-69
2023/04/25 00:18:06;;;;;;;0.93;0.60;;;;;;;;;;20868006;22;20287;-80
2023/04/25 00:28:07;;;;;;;0.80;0.53;;;;;;;;;;20894168;28;20878;-79
2023/04/25 00:38:09;;;;;;;0.50;0.40;;;;;;;;;;20932782;28;20584;-81
2023/04/25 00:48:11;;;;;;;0.97;0.50;;;;;;;;;;20909430;28;20238;-80
2023/04/25 00:58:13;;;;;;;0.63;0.47;;;;;;;;;;20892008;28;20202;-79
2023/04/25 01:08:15;;;;;;;0.90;0.67;;;;;;;;;;20909010;28;20213;-80
2023/04/25 01:18:16;;;;;;;1.37;0.90;;;;;;;;;;20890367;28;20230;-81
2023/04/25 01:28:19;;;;;;;2.67;0.90;;;12.30;99.90;;;;;;20907512;28;20238;-80
2023/04/25 01:38:21;;;;;;;1.40;0.97;;;;;;;;;;20905347;28;20604;-80
2023/04/25 01:48:22;;;;;;;0.93;0.63;;;;;;;;;;20906830;28;20233;-81
2023/04/25 01:58:24;;;;;;;2.03;0.80;;;;;;;;;;20872044;28;20576;-80
2023/04/25 02:08:39;;;;;;;1.20;0.77;;;;;;;;;;20873326;28;20295;-80
2023/04/25 02:18:41;;;;;;;1.80;0.83;;;;;;;;;;20909345;28;20229;-80
2023/04/25 02:28:43;;;;;;;0.87;0.63;;;;;;;;;;20904541;28;20225;-79
2023/04/25 02:38:44;;;;;;;1.27;0.73;;;;;;;;;;20888389;28;20221;-80
2023/04/25 02:48:46;;;;;;;1.13;0.63;;;;;;;;;;20899934;28;20716;-81
2023/04/25 02:58:48;;;;;;;1.03;0.70;;;;;;;;;;20925698;28;20214;-80
2023/04/25 03:08:50;;;;;;;0.50;0.50;;;;;;;;;;20940835;28;20241;-78
2023/04/25 03:18:53;;;;;;;1.33;0.67;;;;;;;;;;20904839;28;20233;-80
2023/04/25 03:28:55;;;;;;;1.30;0.87;;;;;;;;;;20913127;28;20237;-81
2023/04/25 03:38:56;;;;;;;1.93;0.97;;;;;;;;;;20902285;28;20217;-80
2023/04/25 03:48:59;;;;;;;1.20;0.80;;;;;;;;;;20897410;28;20275;-80
2023/04/25 03:59:10;;;;;;;1.17;0.80;;;;;;;;;;20905129;28;20294;-80
2023/04/25 04:09:12;;;;;;;1.20;0.60;;;;;;;;;;20878706;28;20234;-81
2023/04/25 04:19:16;;;;;;;0.90;0.60;;;;;;;;;;20879029;28;20299;-80
2023/04/25 04:29:25;;;;;;;0.90;0.60;;;11.60;99.90;;;;;;20888632;28;20226;-80
2023/04/25 04:39:42;;;;;;;1.03;0.60;;;;;;;;;;20907983;28;20259;-80
2023/04/25 04:49:57;;;;;;;1.00;0.70;;;;;;;;;;20910754;28;20209;-81
2023/04/25 05:00:10;;;;;;;1.07;0.70;;;;;;;;;;20877954;28;20864;-81
2023/04/25 05:10:35;;;;;;;1.30;0.80;;;;;;;;;;20890564;28;20251;-79
2023/04/25 05:20:36;;;;;;;0.93;0.67;;;;;;;;;;20906887;28;20621;-79
2023/04/25 05:30:47;;;;;;;1.40;0.90;;;;;;;;;;20894745;28;20248;-79
2023/04/25 05:40:55;;;;;;;1.00;0.70;;;;;;;;;;20898579;28;20283;-80
2023/04/25 05:51:18;;;;;;;1.27;0.80;;;;;;;;;;20901661;28;20252;-79
2023/04/25 06:01:46;;;;;;;1.57;1.10;;;;;;;;;;20900186;28;20217;-79
2023/04/25 06:11:48;;;;;;;1.20;0.90;;;;;;;;;;20898472;28;20222;-79
2023/04/25 06:21:50;;;;;;;1.30;0.93;;;;;;;;;;20886283;28;20276;-78
2023/04/25 06:31:53;;;;;;;2.00;1.20;;;;;;;;;;20916394;28;20636;-78
2023/04/25 06:41:56;;;;;;;1.57;1.00;;;;;;;;;;20839625;28;20230;-79
2023/04/25 06:52:26;;;;;;;1.70;1.13;;;;;;;;;;20835230;28;20210;-79
2023/04/25 07:02:29;;;;;;;1.90;1.03;;;;;;;;;;20838005;28;20230;-79
2023/04/25 07:12:31;;;;;;;1.80;1.30;;;;;;;;;;20824014;28;20655;-79
2023/04/25 07:22:33;;;;;;;2.47;1.47;;;;;;;;;;20835364;28;20238;-79
2023/04/25 07:32:35;;;;;;;1.47;1.10;;;;;;;;;;20833066;28;20222;-79
2023/04/25 07:42:37;;;;;;;2.20;1.40;;;;;;;;;;20817683;28;20557;-79
2023/04/25 07:52:41;;;;;;;2.60;1.20;;;;;;;;;;20832159;28;20579;-79
2023/04/25 08:02:56;;;;;;;2.37;1.70;;;;;;;;;;20817215;28;20261;-80
2023/04/25 08:12:59;;;;;;;3.93;1.30;;;;;;;;;;20830646;28;20281;-79
2023/04/25 08:23:01;;;;;;;2.93;1.17;;;;;;;;;;20883890;28;20221;-80
2023/04/25 08:33:18;;;;;;;2.40;1.30;;;;;;;;;;20894215;28;20206;-80
2023/04/25 08:43:46;;;;;;;2.67;1.70;;;;;;;;;;20919163;28;20259;-79
2023/04/25 08:53:49;;;;;;;5.37;1.60;;;;;;;;;;20929872;28;20218;-80
2023/04/25 09:03:51;;;;;;;3.50;1.40;;;;;;;;;;20894809;28;20646;-78
2023/04/25 09:14:10;;;;;;;1.30;0.77;;;;;;;;;;20896059;28;20299;-79
2023/04/25 09:24:34;;;;;;;3.17;1.17;;;;;;;;;;20913121;28;20226;-80
2023/04/25 09:34:40;;;;;;;3.60;1.33;;;;;;;;;;20891369;28;20740;-81
2023/04/25 09:44:45;;;;;;;3.17;1.30;;;12.40;99.90;;;;;;20891793;28;20324;-79
2023/04/25 09:54:48;;;;;;;1.77;0.90;;;12.30;99.90;;;;;;20869909;28;20214;-80
2023/04/25 10:04:55;;;;;;;1.60;0.93;;;;;;;;;;20875275;28;20234;-80
2023/04/25 10:15:09;;;;;;;1.00;0.63;;;;;;;;;;20907128;28;20229;-79
2023/04/25 10:25:11;;;;;;;2.53;1.17;;;12.80;99.90;;;;;;20929232;28;20238;-79
2023/04/25 10:35:17;;;;;;;3.17;1.20;;;;;;;;;;20889482;28;20267;-80
2023/04/25 10:45:20;;;;;;;2.30;1.20;;;12.30;99.90;;;;;;20903858;28;20238;-79
2023/04/25 10:55:22;;;;;;;1.30;0.80;;;;;;;;;;20905511;28;20222;-80
2023/04/25 11:05:23;;;;;;;3.07;1.10;;;;;;;;;;20909476;28;20248;-80
2023/04/25 11:15:25;;;;;;;2.67;0.83;;;13.30;99.90;;;;;;20923435;28;20225;-80
2023/04/25 11:25:27;;;;;;;2.30;1.30;;;;;;;;;;20886489;28;20725;-79
2023/04/25 11:35:29;;;;;;;3.17;1.00;;;;;;;;;;20918784;28;20244;-80
2023/04/25 11:45:31;;;;;;;1.67;1.00;;;;;;;;;;20917364;28;20571;-79
2023/04/25 11:55:33;;;;;;;2.13;0.90;;;;;;;;;;20900000;28;20190;-80
2023/04/25 12:05:35;;;;;;;1.63;0.80;;;;;;;;;;20934956;28;20784;-81
2023/04/25 12:15:40;;;;;;;3.40;1.10;;;12.70;99.90;;;;;;20895205;28;20213;-79
2023/04/25 12:25:44;;;;;;;1.60;0.90;;;12.80;99.90;;;;;;20883469;28;20233;-80
2023/04/25 12:35:46;;;;;;;1.37;0.97;;;;;;;;;;20910330;28;20174;-79
2023/04/25 12:45:57;;;;;;;1.30;0.90;;;;;;;;;;20909090;28;20703;-79
2023/04/25 12:55:59;;;;;;;1.47;0.87;;;;;;;;;;20908702;28;20764;-80
2023/04/25 13:06:01;;;;;;;1.63;0.80;;;;;;;;;;20904237;28;20233;-80
2023/04/25 13:16:03;;;;;;;1.47;0.97;;;;;;;;;;20863384;28;20323;-81
2023/04/25 13:26:05;;;;;;;2.50;0.90;;;;;;;;;;20838528;28;20273;-80
2023/04/25 13:36:07;;;;;;;1.23;0.77;;;;;;;;;;20893527;28;20222;-79
2023/04/25 13:46:09;;;;;;;1.67;0.80;;;;;;;;;;20920834;28;20230;-79
2023/04/25 13:56:11;;;;;;;3.00;1.23;;;;;;;;;;20902679;28;20221;-79
2023/04/25 14:06:13;;;;;;;2.00;0.83;;;;;;;;;;20901734;28;20213;-80
2023/04/25 14:16:15;;;;;;;3.13;0.80;;;13.30;99.90;;;;;;20839440;28;20282;-79
2023/04/25 14:26:17;;;;;;;1.87;0.90;;;;;;;;;;20840287;28;20248;-80
2023/04/25 14:36:19;;;;;;;2.37;1.10;;;;;;;;;;20899591;28;20286;-79
2023/04/25 14:46:22;;;;;;;1.50;0.80;;;;;;;;;;20898021;28;20284;-79
2023/04/25 14:56:24;;;;;;;3.37;0.97;;;;;;;;;;20914240;28;20576;-78
2023/04/25 15:06:26;;;;;;;2.10;1.07;;;;;;;;;;20913916;28;20253;-80
2023/04/25 15:16:28;;;;;;;2.47;1.33;;;;;;;;;;20934224;28;20331;-78
2023/04/25 15:26:31;;;;;;;5.27;1.20;;;;;;;;;;20917901;28;20283;-79
2023/04/25 15:36:32;;;;;;;1.17;0.80;;;;;;;;;;20914483;28;20202;-80
2023/04/25 15:46:34;;;;;;;1.40;0.90;;;;;;;;;;20912431;28;20226;-80
2023/04/25 15:56:35;;;;;;;2.37;0.80;;;;;;;;;;20894196;28;20296;-79
2023/04/25 16:06:37;;;;;;;2.03;0.77;;;;;;;;;;20912528;28;20234;-79
2023/04/25 16:16:39;;;;;;;1.40;0.67;;;;;;;;;;20891852;28;20233;-80
2023/04/25 16:26:49;;;;;;;2.53;1.30;;;;;;;;;;20850865;28;20302;-81
2023/04/25 16:36:51;;;;;;;3.97;1.00;;;;;;;;;;20910223;28;20217;-79
2023/04/25 16:46:53;;;;;;;1.23;0.80;;;;;;;;;;20891098;28;20765;-79
2023/04/25 16:56:54;;;;;;;1.07;0.50;;;;;;;;;;20926112;28;20202;-79
2023/04/25 17:06:56;;;;;;;1.03;0.73;;;;;;;;;;20899469;28;20218;-79
2023/04/25 17:16:58;;;;;;;0.80;0.30;;;;;;;;;;20865001;28;20233;-81
2023/04/25 17:27:00;;;;;;;1.87;0.70;;;;;;;;;;20814857;28;20285;-81
2023/04/25 17:37:02;;;;;;;1.50;0.50;;;;;;;;;;20817821;28;20219;-79
2023/04/25 17:47:03;;;;;;;0.67;0.40;;;12.50;99.90;;;;;;20819032;28;20264;-79
2023/04/25 17:57:05;;;;;;;1.50;0.80;;;;;;;;;;20803795;28;20248;-80
2023/04/25 18:07:07;;;;;;;1.47;0.50;;;;;;;;;;20792415;28;20234;-79
2023/04/25 18:17:11;;;;;;;3.60;0.70;;;;;;;;;;20909551;28;20230;-80
2023/04/25 18:27:13;;;;;;;1.53;0.47;;;;;;;;;;20919257;28;20238;-79
2023/04/25 18:37:15;;;;;;;1.50;0.90;;;;;;;;;;20927520;28;20221;-79
2023/04/25 18:47:16;;;;;;;1.90;0.80;;;;;;;;;;20918515;28;20213;-80
2023/04/25 18:57:18;;;;;;;1.23;0.63;;;;;;;;;;20911373;28;20221;-79
2023/04/25 19:07:21;;;;;;;1.27;0.53;;;;;;;;;;20846275;28;20314;-79
2023/04/25 19:17:22;;;;;;;3.93;0.87;;;;;;;;;;20824817;28;20222;-79
2023/04/25 19:27:24;;;;;;;1.70;0.77;;;;;;;;;;20812761;28;20234;-79
2023/04/25 19:37:26;;;;;;;5.03;0.90;;;;;;;;;;20860017;28;20218;-79
2023/04/25 19:47:28;;;;;;;2.63;0.90;;;;;;;;;;20914732;28;20719;-79
2023/04/25 19:57:36;;;;;;;1.30;0.67;;;11.80;99.90;;;;;;20936405;28;20615;-80
2023/04/25 20:07:38;;;;;;;1.67;0.53;;;;;;;;;;20926862;28;20691;-80
2023/04/25 20:17:41;;;;;;;1.20;0.50;;;;;;;;;;20889087;28;20291;-80
2023/04/25 20:27:44;;;;;;;1.43;0.70;;;;;;;;;;20911592;28;20234;-80
2023/04/25 20:37:46;;;;;;;3.07;0.83;;;;;;;;;;20908806;28;20218;-80
2023/04/25 20:47:48;;;;;;;3.13;0.70;;;;;;;;;;20908859;28;20299;-79
2023/04/25 20:57:49;;;;;;;1.10;0.57;;;11.10;99.90;;;;;;20906637;28;20214;-78
2023/04/25 21:07:51;;;;;;;2.83;0.80;;;;;;;;;;20906473;28;20233;-80
2023/04/25 21:17:53;;;;;;;2.40;0.67;;;;;;;;;;20903785;28;20233;-78
2023/04/25 21:27:55;;;;;;;2.20;0.77;;;;;;;;;;20889665;28;20288;-78
2023/04/25 21:37:57;;;;;;;2.57;1.23;;;;;;;;;;20903296;28;20214;-78
2023/04/25 21:47:59;;;;;;;1.20;0.70;;;;;;;;;;20895400;28;20291;-79
2023/04/25 21:58:00;;;;;;;2.57;0.90;;;;;;;;;;20900274;28;20213;-79
2023/04/25 22:08:02;;;;;;;1.20;0.70;;;10.10;99.90;;;;;;20907084;28;20283;-79
2023/04/25 22:18:04;;;;;;;1.70;1.10;;;;;;;;;;20902221;28;20303;-79
2023/04/25 22:28:06;;;;;;;0.83;0.50;;;;;;;;;;20904285;28;20722;-78
2023/04/25 22:38:07;;;;;;;2.23;1.07;;;;;;;;;;20884293;28;20222;-79
2023/04/25 22:48:09;;;;;;;1.17;0.63;;;;;;;;;;20887153;28;20222;-79
2023/04/25 22:58:11;;;;;;;1.50;0.50;;;;;;;;;;20888528;28;20218;-79
2023/04/25 23:08:16;;;;;;;0.60;0.40;;;;;;;;;;20901343;28;20281;-79
2023/04/25 23:18:18;;;;;;;2.10;0.70;;;;;;;;;;20885192;28;20719;-79
2023/04/25 23:28:19;;;;;;;1.00;0.60;;;;;;;;;;20936775;28;20329;-80
2023/04/25 23:38:21;;;;;;;0.80;0.50;;;;;;;;;;20899386;28;20206;-80
2023/04/25 23:48:23;;;;;;;0.40;0.30;;;;;;;;;;20900937;28;20667;-80
2023/04/25 23:58:24;;;;;;;0.60;0.40;;;;;;;;;;20915600;28;20217;-79
